Time;durP1;ratioP1;P1;durP2;ratioP2;P2;SDS_P1;SDS_P2;PMS_P1;PMS_P2;Temp;Humidity;BMP_temperature;BMP_pressure;BME280_temperature;BME280_humidity;BME280_pressure;Samples;Min_cycle;Max_cycle;Signal;HPM_P1;HPM_P2
2020/12/31 00:01:01;;;;;;;7.97;7.27;;;7.50;93.60;;;;;;5050613;28;20510;-79
2020/12/31 00:03:27;;;;;;;8.13;7.43;;;7.40;93.90;;;;;;5052386;28;20671;-79
2020/12/31 00:05:53;;;;;;;7.90;7.10;;;7.40;94.00;;;;;;5050320;28;20377;-79
2020/12/31 00:08:19;;;;;;;6.83;6.20;;;7.40;94.10;;;;;;5050792;28;20183;-77
2020/12/31 00:10:45;;;;;;;7.80;7.10;;;7.40;94.10;;;;;;5051415;28;20421;-79
2020/12/31 00:13:11;;;;;;;7.53;6.80;;;7.40;94.10;;;;;;5049692;28;20175;-79
2020/12/31 00:15:36;;;;;;;8.73;7.90;;;7.30;94.00;;;;;;5051306;28;20172;-79
2020/12/31 00:18:03;;;;;;;7.93;7.13;;;7.30;94.30;;;;;;5049790;28;20199;-79
2020/12/31 00:20:30;;;;;;;8.40;7.37;;;7.40;94.40;;;;;;5052816;28;20187;-79
2020/12/31 00:22:55;;;;;;;7.83;7.13;;;7.20;94.40;;;;;;5050144;28;20433;-79
2020/12/31 00:25:21;;;;;;;7.90;7.10;;;7.20;94.80;;;;;;5052152;28;20388;-78
2020/12/31 00:27:48;;;;;;;7.67;6.77;;;7.30;94.60;;;;;;5051990;28;21030;-79
2020/12/31 00:30:16;;;;;;;9.10;6.80;;;7.30;94.50;;;;;;5048366;28;20417;-79
2020/12/31 00:32:46;;;;;;;11.03;7.53;;;7.30;94.40;;;;;;5051934;28;20396;-79
2020/12/31 00:35:17;;;;;;;7.20;6.60;;;7.30;94.50;;;;;;5050991;28;21120;-78
2020/12/31 00:37:43;;;;;;;6.37;5.87;;;7.30;94.60;;;;;;5050282;28;20429;-78
2020/12/31 00:40:08;;;;;;;7.57;6.87;;;7.30;94.40;;;;;;5051287;28;20417;-79
2020/12/31 00:42:34;;;;;;;6.97;6.27;;;7.30;94.40;;;;;;5050105;28;20634;-78
2020/12/31 00:45:00;;;;;;;7.10;6.43;;;7.30;94.10;;;;;;5051730;28;20186;-79
2020/12/31 00:47:26;;;;;;;8.77;6.90;;;7.20;94.20;;;;;;5050460;28;20694;-78
2020/12/31 00:49:51;;;;;;;7.37;6.67;;;7.20;94.20;;;;;;5049715;28;20461;-79
2020/12/31 00:52:17;;;;;;;7.93;7.17;;;7.30;94.30;;;;;;5050078;28;20205;-78
2020/12/31 00:54:43;;;;;;;6.50;5.90;;;7.30;94.10;;;;;;5051333;28;20170;-78
2020/12/31 00:57:09;;;;;;;7.60;6.80;;;7.40;94.00;;;;;;5050736;28;20263;-78
2020/12/31 00:59:35;;;;;;;6.57;6.07;;;7.40;93.90;;;;;;5051869;28;20178;-78
2020/12/31 01:02:01;;;;;;;6.43;5.83;;;7.20;93.90;;;;;;5050507;28;20975;-78
2020/12/31 01:04:27;;;;;;;6.70;5.97;;;7.30;94.00;;;;;;5051961;28;20174;-78
2020/12/31 01:06:53;;;;;;;7.70;6.63;;;7.30;94.00;;;;;;5049929;28;20449;-79
2020/12/31 01:09:18;;;;;;;6.70;6.03;;;7.30;94.20;;;;;;5051128;28;20504;-78
2020/12/31 01:11:44;;;;;;;6.80;6.20;;;7.40;94.20;;;;;;5051604;28;20175;-78
2020/12/31 01:14:10;;;;;;;6.93;6.23;;;7.30;94.30;;;;;;5051079;28;20215;-78
2020/12/31 01:16:36;;;;;;;7.37;6.70;;;7.40;94.90;;;;;;5051671;28;20659;-79
2020/12/31 01:19:02;;;;;;;7.30;6.60;;;7.40;94.60;;;;;;5049244;28;20210;-78
2020/12/31 01:21:28;;;;;;;7.20;6.50;;;7.40;94.70;;;;;;5051587;28;20423;-78
2020/12/31 01:23:54;;;;;;;7.00;6.33;;;7.20;94.80;;;;;;5049525;28;20831;-79
2020/12/31 01:26:33;;;;;;;7.07;6.53;;;7.20;95.40;;;;;;5050904;28;20469;-78
2020/12/31 01:29:03;;;;;;;7.43;6.60;;;7.20;95.60;;;;;;5041270;28;20385;-79
2020/12/31 01:31:29;;;;;;;7.53;6.87;;;7.20;95.80;;;;;;5071598;28;20524;-78
2020/12/31 01:33:56;;;;;;;6.93;6.33;;;7.10;96.00;;;;;;5069911;28;20427;-80
2020/12/31 01:36:21;;;;;;;7.80;7.10;;;7.10;96.60;;;;;;5070020;28;20423;-78
2020/12/31 01:38:47;;;;;;;7.30;6.70;;;6.80;96.90;;;;;;5053321;28;20409;-78
2020/12/31 01:41:14;;;;;;;7.13;6.33;;;6.80;97.40;;;;;;5071894;28;20407;-78
2020/12/31 01:43:40;;;;;;;7.33;6.73;;;6.90;97.40;;;;;;5073945;28;20630;-78
2020/12/31 01:46:12;;;;;;;7.57;6.80;;;6.80;97.80;;;;;;5072948;28;20416;-78
2020/12/31 01:48:41;;;;;;;9.90;7.20;;;6.80;98.00;;;;;;5071247;28;20253;-78
2020/12/31 01:51:07;;;;;;;6.80;6.30;;;6.90;98.00;;;;;;5054399;28;20388;-79
2020/12/31 01:53:33;;;;;;;6.93;6.33;;;7.00;97.90;;;;;;5053193;28;20957;-79
2020/12/31 01:56:02;;;;;;;7.23;6.53;;;6.90;97.70;;;;;;5036337;28;20187;-79
2020/12/31 01:58:28;;;;;;;7.10;6.50;;;6.80;97.90;;;;;;5055037;28;20406;-78
2020/12/31 02:00:56;;;;;;;7.40;6.80;;;6.90;98.00;;;;;;5053678;28;20551;-79
2020/12/31 02:03:22;;;;;;;8.20;7.50;;;6.90;97.80;;;;;;5054185;28;20640;-78
2020/12/31 02:05:48;;;;;;;7.93;7.03;;;7.00;97.70;;;;;;5053233;28;20421;-79
2020/12/31 02:08:14;;;;;;;7.70;7.00;;;6.90;97.70;;;;;;5053811;28;21227;-79
2020/12/31 02:10:39;;;;;;;8.27;7.47;;;7.00;97.70;;;;;;5054817;28;20257;-79
2020/12/31 02:13:05;;;;;;;7.27;6.57;;;6.90;97.50;;;;;;5052534;28;20271;-79
2020/12/31 02:15:31;;;;;;;9.83;7.70;;;6.90;97.70;;;;;;5053429;28;20175;-78
2020/12/31 02:17:56;;;;;;;7.90;7.10;;;6.90;97.60;;;;;;5053965;28;20681;-80
2020/12/31 02:20:22;;;;;;;8.60;7.77;;;6.90;97.40;;;;;;5054179;28;20185;-78
2020/12/31 02:22:48;;;;;;;8.07;7.27;;;6.90;97.10;;;;;;5054256;28;20524;-78
2020/12/31 02:25:13;;;;;;;8.33;7.50;;;6.90;97.60;;;;;;5053368;28;20744;-78
2020/12/31 02:27:39;;;;;;;8.07;7.37;;;6.90;97.10;;;;;;5053071;28;20271;-78
2020/12/31 02:30:05;;;;;;;10.43;7.77;;;6.90;96.90;;;;;;5053138;28;20590;-77
2020/12/31 02:32:30;;;;;;;8.87;7.97;;;7.00;96.90;;;;;;5055871;28;20674;-76
2020/12/31 02:34:56;;;;;;;8.47;7.70;;;6.90;96.90;;;;;;5055767;28;20275;-77
2020/12/31 02:37:22;;;;;;;8.33;7.63;;;6.90;96.70;;;;;;5054281;28;20200;-77
2020/12/31 02:39:48;;;;;;;7.53;6.90;;;6.90;96.80;;;;;;5052556;28;20233;-77
2020/12/31 02:42:13;;;;;;;8.50;7.70;;;6.90;96.80;;;;;;5053433;28;20179;-77
2020/12/31 02:44:39;;;;;;;8.37;7.60;;;6.80;96.70;;;;;;5053831;28;20187;-77
2020/12/31 02:47:05;;;;;;;8.53;7.73;;;6.90;96.90;;;;;;5053205;28;20535;-77
2020/12/31 02:49:30;;;;;;;8.53;7.73;;;6.80;96.60;;;;;;5053487;28;20190;-77
2020/12/31 02:51:56;;;;;;;7.83;7.03;;;6.90;96.50;;;;;;5052627;28;20188;-79
2020/12/31 02:54:22;;;;;;;8.57;7.60;;;6.80;96.70;;;;;;5053796;28;20257;-77
2020/12/31 02:56:48;;;;;;;8.97;7.17;;;6.90;96.60;;;;;;5053935;28;20209;-77
2020/12/31 02:59:13;;;;;;;7.80;7.00;;;6.50;97.00;;;;;;5053079;28;20658;-77
2020/12/31 03:01:39;;;;;;;8.43;7.57;;;6.40;97.30;;;;;;5053901;28;20181;-78
2020/12/31 03:04:05;;;;;;;8.60;7.80;;;6.60;97.40;;;;;;5052902;28;20213;-78
2020/12/31 03:06:30;;;;;;;8.60;7.77;;;6.50;97.20;;;;;;5054013;28;20727;-78
2020/12/31 03:08:56;;;;;;;8.07;7.37;;;6.40;97.40;;;;;;5052940;28;20179;-79
2020/12/31 03:11:24;;;;;;;8.17;7.43;;;6.50;97.60;;;;;;5053286;28;20193;-77
2020/12/31 03:13:51;;;;;;;8.63;7.70;;;6.50;97.60;;;;;;5053501;28;20178;-78
2020/12/31 03:16:17;;;;;;;7.97;7.27;;;6.50;97.70;;;;;;5052698;28;20204;-77
2020/12/31 03:18:43;;;;;;;8.68;7.85;;;6.50;97.70;;;;;;5053268;28;20425;-78
2020/12/31 03:21:12;;;;;;;9.17;8.17;;;6.60;97.60;;;;;;5052462;28;20641;-78
2020/12/31 03:23:38;;;;;;;9.93;8.40;;;6.60;97.50;;;;;;5052583;28;20443;-78
2020/12/31 03:26:05;;;;;;;8.40;7.43;;;6.70;97.70;;;;;;5052221;28;20863;-78
2020/12/31 03:28:30;;;;;;;8.48;7.72;;;6.80;97.20;;;;;;5053260;28;20586;-77
2020/12/31 03:30:56;;;;;;;8.60;7.80;;;6.60;97.20;;;;;;5053080;28;20224;-79
2020/12/31 03:33:22;;;;;;;9.03;8.23;;;6.70;97.80;;;;;;5051596;28;20395;-77
2020/12/31 03:35:49;;;;;;;8.95;8.15;;;6.60;97.80;;;;;;5052797;28;20387;-77
2020/12/31 03:38:19;;;;;;;8.52;7.50;;;6.30;98.10;;;;;;5052450;28;20556;-77
2020/12/31 03:40:45;;;;;;;9.07;8.18;;;6.20;98.90;;;;;;5053173;28;20182;-77
2020/12/31 03:43:11;;;;;;;9.00;8.17;;;6.30;99.20;;;;;;5052419;28;20181;-77
2020/12/31 03:45:38;;;;;;;9.20;8.10;;;6.30;99.20;;;;;;5034801;28;20189;-77
2020/12/31 03:48:04;;;;;;;9.30;8.30;;;6.50;99.30;;;;;;5052016;28;20674;-77
2020/12/31 03:50:31;;;;;;;10.20;8.13;;;6.60;98.90;;;;;;5052376;28;20898;-77
2020/12/31 03:52:57;;;;;;;8.82;7.93;;;6.50;98.60;;;;;;5052530;28;20182;-79
2020/12/31 03:55:23;;;;;;;8.80;8.00;;;6.60;99.00;;;;;;5052334;28;20264;-77
2020/12/31 03:57:49;;;;;;;9.40;8.27;;;6.70;98.70;;;;;;5052734;28;20918;-77
2020/12/31 04:00:15;;;;;;;9.80;8.90;;;6.80;98.50;;;;;;5051991;28;20380;-77
2020/12/31 04:02:40;;;;;;;9.60;8.60;;;6.80;98.40;;;;;;5052592;28;20530;-77
2020/12/31 04:05:07;;;;;;;8.77;7.43;;;6.90;98.30;;;;;;5050173;28;20183;-78
2020/12/31 04:07:33;;;;;;;9.20;8.40;;;6.90;98.00;;;;;;5052007;28;20244;-77
2020/12/31 04:09:59;;;;;;;9.30;8.40;;;6.90;97.70;;;;;;5050701;28;20436;-79
2020/12/31 04:12:25;;;;;;;9.50;8.70;;;6.80;97.60;;;;;;5052589;28;20512;-77
2020/12/31 04:14:50;;;;;;;9.03;8.20;;;6.70;98.10;;;;;;5051188;28;20193;-77
2020/12/31 04:17:16;;;;;;;8.80;8.00;;;6.70;98.20;;;;;;5051490;28;20177;-78
2020/12/31 04:19:42;;;;;;;9.80;8.80;;;6.80;98.40;;;;;;5052286;28;20657;-78
2020/12/31 04:22:08;;;;;;;8.80;8.00;;;6.80;98.30;;;;;;5050052;28;20639;-78
2020/12/31 04:24:35;;;;;;;9.33;8.40;;;6.90;98.20;;;;;;5052388;28;20465;-78
2020/12/31 04:27:00;;;;;;;8.60;7.90;;;6.90;98.00;;;;;;5049828;28;20455;-78
2020/12/31 04:29:26;;;;;;;8.00;7.30;;;6.90;98.30;;;;;;5051862;28;20471;-78
2020/12/31 04:31:52;;;;;;;8.07;7.30;;;6.80;97.70;;;;;;5034139;28;20472;-78
2020/12/31 04:34:18;;;;;;;8.23;7.43;;;6.70;98.20;;;;;;5050215;28;20441;-77
2020/12/31 04:36:44;;;;;;;8.40;7.60;;;6.60;98.10;;;;;;5051869;28;20622;-77
2020/12/31 04:39:09;;;;;;;7.80;7.10;;;6.60;98.50;;;;;;5051436;28;20193;-77
2020/12/31 04:41:35;;;;;;;8.40;7.60;;;6.70;98.50;;;;;;5050671;28;20176;-77
2020/12/31 04:44:02;;;;;;;7.50;6.80;;;6.70;98.30;;;;;;5050827;28;20265;-78
2020/12/31 04:46:30;;;;;;;7.70;6.97;;;6.80;98.40;;;;;;5050715;28;20213;-77
2020/12/31 04:49:10;;;;;;;7.43;6.83;;;6.80;98.10;;;;;;5051260;28;20389;-79
2020/12/31 04:51:37;;;;;;;7.63;6.87;;;6.90;98.10;;;;;;5052051;28;20744;-78
2020/12/31 04:54:07;;;;;;;6.73;6.23;;;7.00;97.80;;;;;;5050853;28;20410;-78
2020/12/31 04:56:35;;;;;;;6.90;6.30;;;6.90;97.80;;;;;;5051712;28;20373;-78
2020/12/31 04:59:01;;;;;;;6.97;6.40;;;7.00;97.80;;;;;;5049787;28;20385;-78
2020/12/31 05:01:27;;;;;;;6.97;6.47;;;7.00;98.00;;;;;;5051669;28;20394;-77
2020/12/31 05:03:53;;;;;;;7.07;6.57;;;6.90;97.60;;;;;;5050579;28;20413;-77
2020/12/31 05:06:22;;;;;;;7.43;6.90;;;6.90;97.80;;;;;;5051077;28;20242;-77
2020/12/31 05:08:48;;;;;;;8.00;7.30;;;7.00;97.70;;;;;;5051984;28;20225;-77
2020/12/31 05:11:14;;;;;;;7.33;6.77;;;6.60;97.40;;;;;;5049832;28;20996;-77
2020/12/31 05:13:50;;;;;;;7.03;6.53;;;6.60;98.30;;;;;;5051983;28;20300;-77
2020/12/31 05:16:27;;;;;;;6.72;6.15;;;6.30;98.60;;;;;;5053867;28;20173;-77
2020/12/31 05:18:53;;;;;;;7.10;6.43;;;6.40;98.90;;;;;;5055351;28;20662;-78
2020/12/31 05:21:19;;;;;;;7.70;6.90;;;6.40;99.20;;;;;;5054858;28;20622;-77
2020/12/31 05:23:45;;;;;;;6.70;6.13;;;6.40;99.00;;;;;;5055428;28;20421;-77
2020/12/31 05:26:26;;;;;;;6.97;6.30;;;6.50;98.80;;;;;;5054292;28;20905;-78
2020/12/31 05:28:53;;;;;;;6.90;6.30;;;6.60;98.90;;;;;;5054479;28;20174;-77
2020/12/31 05:31:21;;;;;;;6.20;5.70;;;6.70;98.70;;;;;;5054734;28;20402;-77
2020/12/31 05:33:47;;;;;;;7.25;6.55;;;6.70;98.20;;;;;;5060552;28;20405;-78
2020/12/31 05:36:19;;;;;;;8.47;7.57;;;6.80;98.10;;;;;;5062160;28;20535;-78
2020/12/31 05:38:54;;;;;;;6.50;6.00;;;6.80;97.90;;;;;;5061898;28;20484;-78
2020/12/31 05:41:21;;;;;;;6.47;5.87;;;6.70;98.30;;;;;;5062912;28;20439;-78
2020/12/31 05:43:53;;;;;;;7.57;6.70;;;6.70;98.20;;;;;;5074172;28;20406;-78
2020/12/31 05:46:19;;;;;;;7.50;6.80;;;6.80;98.30;;;;;;5074472;28;21040;-77
2020/12/31 05:48:53;;;;;;;6.93;6.22;;;6.80;98.10;;;;;;5075303;28;20374;-77
2020/12/31 05:51:21;;;;;;;8.17;6.90;;;6.90;98.10;;;;;;5074546;28;20181;-78
2020/12/31 05:53:50;;;;;;;6.93;6.33;;;6.80;97.90;;;;;;5075149;28;20379;-77
2020/12/31 05:56:18;;;;;;;6.68;6.03;;;6.70;98.10;;;;;;5073141;28;20387;-77
2020/12/31 05:58:45;;;;;;;6.63;6.03;;;6.70;98.50;;;;;;5073857;28;20220;-76
2020/12/31 06:01:14;;;;;;;6.40;5.83;;;6.80;98.40;;;;;;5074145;28;20177;-76
2020/12/31 06:03:51;;;;;;;6.20;5.70;;;6.60;98.30;;;;;;5074770;28;20408;-76
2020/12/31 06:06:19;;;;;;;5.37;4.97;;;6.80;98.70;;;;;;5074166;28;20412;-76
2020/12/31 06:08:54;;;;;;;8.10;5.80;;;6.70;98.30;;;;;;5074770;28;20393;-76
2020/12/31 06:11:32;;;;;;;5.93;5.53;;;6.90;98.40;;;;;;5073897;28;20405;-76
2020/12/31 06:13:58;;;;;;;6.53;6.03;;;6.90;98.20;;;;;;5074658;28;20371;-78
2020/12/31 06:16:28;;;;;;;5.70;5.20;;;7.00;98.00;;;;;;5073204;28;20394;-76
2020/12/31 06:19:02;;;;;;;5.87;5.30;;;7.00;97.70;;;;;;5072413;28;20427;-76
2020/12/31 06:21:43;;;;;;;5.90;5.40;;;7.10;97.80;;;;;;5054583;28;20759;-76
2020/12/31 06:24:12;;;;;;;5.50;5.03;;;6.80;97.50;;;;;;5053696;28;20396;-76
2020/12/31 06:26:40;;;;;;;5.20;4.80;;;6.90;98.10;;;;;;5053484;28;20472;-76
2020/12/31 06:29:09;;;;;;;5.07;4.67;;;6.80;98.20;;;;;;5053611;28;20175;-76
2020/12/31 06:31:37;;;;;;;5.00;4.60;;;6.80;98.10;;;;;;5053003;28;20384;-76
2020/12/31 06:34:02;;;;;;;5.40;5.00;;;6.90;98.20;;;;;;5052681;28;20404;-78
2020/12/31 06:36:35;;;;;;;5.33;4.67;;;7.00;98.00;;;;;;5054552;28;20403;-76
2020/12/31 06:39:02;;;;;;;4.60;4.30;;;6.90;97.50;;;;;;5052821;28;20179;-78
2020/12/31 06:41:31;;;;;;;5.23;4.83;;;7.00;97.90;;;;;;5053427;28;20387;-76
2020/12/31 06:44:06;;;;;;;4.90;4.60;;;7.00;97.80;;;;;;5054149;28;20454;-76
2020/12/31 06:46:45;;;;;;;5.07;4.60;;;6.90;97.70;;;;;;5053604;28;20756;-76
2020/12/31 06:49:12;;;;;;;4.80;4.50;;;6.90;98.30;;;;;;5053410;28;20397;-76
2020/12/31 06:51:38;;;;;;;4.20;3.90;;;7.00;97.90;;;;;;5053171;28;20456;-76
2020/12/31 06:54:04;;;;;;;4.50;4.13;;;6.80;97.50;;;;;;5053152;28;20439;-78
2020/12/31 06:56:52;;;;;;;4.33;4.00;;;6.70;98.10;;;;;;5053560;28;20432;-77
2020/12/31 06:59:33;;;;;;;4.30;4.00;;;6.80;98.20;;;;;;5053066;28;20452;-77
2020/12/31 07:02:23;;;;;;;4.20;3.90;;;6.80;98.20;;;;;;5058503;28;20436;-76
2020/12/31 07:04:49;;;;;;;3.97;3.67;;;6.70;98.20;;;;;;5052571;28;20424;-78
2020/12/31 07:07:21;;;;;;;4.00;3.70;;;6.80;98.50;;;;;;5048389;28;20790;-76
2020/12/31 07:09:57;;;;;;;3.87;3.67;;;6.80;98.10;;;;;;5045199;28;20431;-78
2020/12/31 07:12:41;;;;;;;3.90;3.70;;;6.80;98.40;;;;;;5033039;28;20390;-76
2020/12/31 07:15:10;;;;;;;4.53;4.23;;;6.80;98.40;;;;;;5049930;28;20413;-77
2020/12/31 07:17:38;;;;;;;3.80;3.60;;;6.80;98.50;;;;;;5053769;28;20385;-76
2020/12/31 07:20:07;;;;;;;3.30;3.20;;;6.80;98.50;;;;;;5052280;28;20421;-78
2020/12/31 07:22:36;;;;;;;3.90;3.60;;;6.80;98.10;;;;;;5053441;28;20420;-76
2020/12/31 07:25:07;;;;;;;3.80;3.60;;;6.60;98.20;;;;;;5052966;28;20395;-78
2020/12/31 07:27:39;;;;;;;3.80;3.60;;;6.50;98.60;;;;;;5053185;28;20265;-75
2020/12/31 07:30:07;;;;;;;3.58;3.38;;;6.50;99.10;;;;;;5051694;28;20397;-78
2020/12/31 07:32:58;;;;;;;3.80;3.60;;;6.50;99.20;;;;;;5033393;28;20183;-76
2020/12/31 07:35:51;;;;;;;3.43;3.27;;;6.50;99.10;;;;;;5032548;28;20739;-76
2020/12/31 07:38:18;;;;;;;3.70;3.50;;;6.50;99.00;;;;;;5032433;28;20484;-76
2020/12/31 07:40:48;;;;;;;3.30;3.10;;;6.70;99.10;;;;;;5032134;28;20228;-76
2020/12/31 07:43:25;;;;;;;3.37;3.17;;;6.80;99.20;;;;;;5033762;28;20419;-75
2020/12/31 07:45:53;;;;;;;3.70;3.50;;;6.80;98.40;;;;;;5052152;28;20398;-76
2020/12/31 07:48:20;;;;;;;3.40;3.20;;;6.90;98.30;;;;;;5052191;28;20444;-82
2020/12/31 07:50:51;;;;;;;4.00;3.80;;;7.00;98.30;;;;;;5051673;28;20427;-77
2020/12/31 07:53:17;;;;;;;4.53;4.23;;;7.00;98.00;;;;;;5051638;28;20417;-78
2020/12/31 07:55:53;;;;;;;4.00;3.80;;;6.90;97.70;;;;;;5052367;28;20433;-77
2020/12/31 07:58:21;;;;;;;4.20;3.77;;;7.00;98.00;;;;;;5052252;28;20182;-78
2020/12/31 08:01:04;;;;;;;4.10;3.90;;;7.10;97.70;;;;;;5055544;28;20929;-77
2020/12/31 08:03:30;;;;;;;3.93;3.73;;;7.10;97.60;;;;;;5051985;28;20479;-78
2020/12/31 08:06:00;;;;;;;3.97;3.67;;;7.20;97.20;;;;;;5052478;28;20397;-77
2020/12/31 08:08:26;;;;;;;3.27;3.07;;;6.90;97.60;;;;;;5050565;28;20445;-77
2020/12/31 08:10:52;;;;;;;3.30;3.10;;;6.90;97.30;;;;;;5052406;28;20917;-77
2020/12/31 08:13:18;;;;;;;3.77;3.57;;;6.80;97.40;;;;;;5051685;28;20445;-77
2020/12/31 08:15:54;;;;;;;3.90;3.70;;;6.60;97.80;;;;;;5051442;28;20254;-78
2020/12/31 08:18:21;;;;;;;4.10;3.80;;;6.70;98.00;;;;;;5033215;28;20406;-77
2020/12/31 08:20:49;;;;;;;3.50;3.40;;;6.80;97.70;;;;;;5052494;28;20406;-77
2020/12/31 08:23:23;;;;;;;3.60;3.40;;;6.60;97.60;;;;;;5051312;28;20451;-78
2020/12/31 08:25:51;;;;;;;4.30;4.03;;;6.60;98.10;;;;;;5051863;28;20913;-77
2020/12/31 08:28:19;;;;;;;4.90;4.60;;;6.70;98.10;;;;;;5049955;28;20436;-77
2020/12/31 08:30:45;;;;;;;8.57;7.77;;;7.10;99.90;;;;;;5052029;28;20399;-83
2020/12/31 08:33:12;;;;;;;4.67;4.37;;;7.20;99.90;;;;;;5050443;28;20475;-76
2020/12/31 08:35:42;;;;;;;4.37;4.07;;;7.20;99.90;;;;;;5050497;28;20854;-74
2020/12/31 08:38:13;;;;;;;4.53;4.23;;;7.30;98.60;;;;;;5057409;28;20904;-77
2020/12/31 08:40:45;;;;;;;4.20;3.90;;;7.30;97.80;;;;;;5050952;28;20910;-75
2020/12/31 08:43:25;;;;;;;3.90;3.70;;;7.30;97.40;;;;;;5051510;28;20908;-75
2020/12/31 08:45:53;;;;;;;4.40;4.10;;;7.20;97.10;;;;;;5051862;28;20410;-75
2020/12/31 08:48:27;;;;;;;4.27;3.97;;;7.20;97.00;;;;;;5051189;28;20950;-75
2020/12/31 08:51:12;;;;;;;4.30;4.00;;;7.20;97.10;;;;;;5051626;28;20517;-75
2020/12/31 08:53:51;;;;;;;5.10;4.60;;;7.20;96.90;;;;;;5051503;28;20419;-75
2020/12/31 08:56:18;;;;;;;4.23;3.93;;;6.90;97.10;;;;;;5050854;28;20504;-75
2020/12/31 08:58:43;;;;;;;4.17;3.77;;;6.80;98.00;;;;;;5051599;28;20417;-75
2020/12/31 09:01:25;;;;;;;4.67;4.17;;;6.90;98.10;;;;;;5051551;28;20908;-77
2020/12/31 09:04:05;;;;;;;4.00;3.70;;;7.00;98.10;;;;;;5051808;28;20511;-75
2020/12/31 09:06:30;;;;;;;3.90;3.70;;;7.00;98.00;;;;;;5050615;28;20446;-75
2020/12/31 09:08:57;;;;;;;4.27;3.97;;;7.10;97.70;;;;;;5051648;28;20421;-75
2020/12/31 09:11:27;;;;;;;4.30;3.90;;;7.00;97.70;;;;;;5050600;28;20177;-75
2020/12/31 09:13:54;;;;;;;4.60;4.30;;;7.00;97.80;;;;;;5050176;28;20395;-75
2020/12/31 09:16:20;;;;;;;4.10;3.80;;;7.10;97.90;;;;;;5056658;28;20390;-75
2020/12/31 09:18:58;;;;;;;3.90;3.70;;;7.20;97.60;;;;;;5060620;28;20814;-75
2020/12/31 09:21:28;;;;;;;3.70;3.50;;;7.10;97.10;;;;;;5050857;28;20918;-75
2020/12/31 09:23:54;;;;;;;4.57;4.37;;;7.20;97.70;;;;;;5050770;28;20433;-75
2020/12/31 09:26:27;;;;;;;5.27;4.77;;;7.20;97.50;;;;;;5049204;28;20453;-75
2020/12/31 09:28:53;;;;;;;4.60;4.23;;;7.30;97.30;;;;;;5051681;28;20262;-75
2020/12/31 09:31:22;;;;;;;4.17;3.87;;;7.30;97.20;;;;;;5050814;28;20445;-75
2020/12/31 09:33:49;;;;;;;4.90;4.50;;;7.30;96.90;;;;;;5051788;28;20841;-75
2020/12/31 09:36:23;;;;;;;4.23;4.00;;;7.40;96.90;;;;;;5050862;28;20418;-76
2020/12/31 09:38:49;;;;;;;5.07;4.67;;;7.40;96.90;;;;;;5051667;28;20407;-75
2020/12/31 09:41:15;;;;;;;4.70;4.40;;;7.40;96.60;;;;;;5050748;28;20483;-79
2020/12/31 09:43:40;;;;;;;4.40;4.10;;;7.60;99.90;;;;;;5051671;28;20427;-79
2020/12/31 09:46:06;;;;;;;4.83;4.43;;;7.60;99.90;;;;;;5049699;28;20207;-77
2020/12/31 09:48:32;;;;;;;171.47;99.77;;;7.40;96.90;;;;;;5050439;28;20212;-76
2020/12/31 09:50:58;;;;;;;8.83;7.67;;;7.30;97.10;;;;;;5051472;28;20176;-77
2020/12/31 09:53:23;;;;;;;992.80;525.07;;;7.40;96.70;;;;;;5050689;28;20438;-77
2020/12/31 09:55:49;;;;;;;20.23;16.20;;;7.50;96.80;;;;;;5051183;28;20198;-77
2020/12/31 09:58:15;;;;;;;4.33;4.03;;;7.50;96.50;;;;;;5050328;28;20183;-77
2020/12/31 10:00:41;;;;;;;5.00;4.60;;;7.50;96.00;;;;;;5050144;28;20180;-76
2020/12/31 10:03:06;;;;;;;4.73;4.43;;;7.40;95.60;;;;;;5052926;28;20184;-77
2020/12/31 10:05:32;;;;;;;5.20;4.90;;;7.30;96.00;;;;;;5052331;28;20181;-76
2020/12/31 10:07:58;;;;;;;4.50;4.27;;;7.30;96.10;;;;;;5053607;28;20199;-77
2020/12/31 10:10:23;;;;;;;5.23;4.93;;;7.30;96.30;;;;;;5053652;28;20632;-77
2020/12/31 10:12:49;;;;;;;4.30;4.10;;;7.40;96.10;;;;;;5054852;28;20187;-77
2020/12/31 10:15:15;;;;;;;4.63;4.33;;;7.50;96.10;;;;;;5052922;28;20199;-79
2020/12/31 10:17:40;;;;;;;5.70;4.70;;;7.50;95.90;;;;;;5054607;28;20265;-77
2020/12/31 10:20:06;;;;;;;5.10;4.70;;;7.40;95.70;;;;;;5053559;28;20233;-77
2020/12/31 10:22:32;;;;;;;4.57;4.27;;;7.40;96.30;;;;;;5053872;28;20251;-77
2020/12/31 10:24:58;;;;;;;5.00;4.70;;;7.30;96.10;;;;;;5054445;28;20263;-77
2020/12/31 10:27:23;;;;;;;4.87;4.57;;;7.30;96.10;;;;;;5053705;28;20475;-77
2020/12/31 10:29:49;;;;;;;4.90;4.60;;;7.10;96.00;;;;;;5054630;28;20181;-77
2020/12/31 10:32:15;;;;;;;5.60;5.20;;;7.10;96.00;;;;;;5053870;28;20701;-79
2020/12/31 10:34:41;;;;;;;5.10;4.70;;;7.10;96.30;;;;;;5052888;28;20193;-77
2020/12/31 10:37:07;;;;;;;5.07;4.70;;;7.20;96.50;;;;;;5054512;28;20460;-77
2020/12/31 10:39:32;;;;;;;4.63;4.40;;;7.30;96.20;;;;;;5053368;28;20502;-77
2020/12/31 10:41:58;;;;;;;4.70;4.40;;;7.20;96.00;;;;;;5054052;28;20179;-77
2020/12/31 10:44:24;;;;;;;4.93;4.63;;;7.10;96.10;;;;;;5052407;28;20521;-77
2020/12/31 10:46:50;;;;;;;5.10;4.80;;;7.00;96.10;;;;;;5053507;28;20356;-77
2020/12/31 10:49:15;;;;;;;4.70;4.50;;;7.00;96.50;;;;;;5053579;28;20271;-78
2020/12/31 10:51:41;;;;;;;4.80;4.50;;;6.90;96.50;;;;;;5053913;28;20209;-77
2020/12/31 10:54:08;;;;;;;5.40;5.03;;;7.00;96.70;;;;;;5054143;28;20409;-77
2020/12/31 10:56:35;;;;;;;5.50;5.20;;;6.90;96.70;;;;;;5051659;28;20755;-77
2020/12/31 10:59:01;;;;;;;4.83;4.60;;;6.80;97.20;;;;;;5053868;28;20277;-77
2020/12/31 11:01:27;;;;;;;5.50;5.20;;;6.80;97.30;;;;;;5053139;28;20919;-77
2020/12/31 11:03:52;;;;;;;5.90;5.50;;;6.90;97.30;;;;;;5053760;28;20378;-77
2020/12/31 11:06:20;;;;;;;4.70;4.40;;;6.90;97.40;;;;;;5053143;28;20179;-79
2020/12/31 11:08:46;;;;;;;5.37;5.07;;;6.90;97.30;;;;;;5054038;28;20175;-76
2020/12/31 11:11:26;;;;;;;4.57;4.27;;;6.90;97.20;;;;;;5052506;28;20389;-77
2020/12/31 11:13:53;;;;;;;4.80;4.50;;;6.90;97.40;;;;;;5053588;28;20393;-77
2020/12/31 11:16:19;;;;;;;4.70;4.40;;;7.00;97.50;;;;;;5053035;28;20865;-77
2020/12/31 11:18:45;;;;;;;4.13;3.93;;;7.10;97.60;;;;;;5052282;28;20419;-77
2020/12/31 11:21:13;;;;;;;4.80;4.50;;;7.00;96.80;;;;;;5052403;28;20387;-77
2020/12/31 11:23:40;;;;;;;4.83;4.53;;;7.10;96.80;;;;;;5052364;28;20447;-75
2020/12/31 11:26:10;;;;;;;4.17;3.97;;;7.10;96.80;;;;;;5037678;28;20478;-77
2020/12/31 11:28:36;;;;;;;4.10;3.90;;;7.20;96.90;;;;;;5057952;28;20470;-77
2020/12/31 11:31:02;;;;;;;4.60;4.30;;;7.30;97.20;;;;;;5053634;28;20395;-77
2020/12/31 11:33:27;;;;;;;3.87;3.67;;;7.30;96.80;;;;;;5052692;28;20392;-77
2020/12/31 11:35:53;;;;;;;4.30;4.07;;;7.30;96.40;;;;;;5053284;28;20182;-76
2020/12/31 11:38:19;;;;;;;4.00;3.70;;;7.40;96.70;;;;;;5052413;28;20206;-77
2020/12/31 11:40:45;;;;;;;3.50;3.30;;;7.40;96.30;;;;;;5051953;28;20178;-77
2020/12/31 11:43:11;;;;;;;3.57;3.37;;;7.40;96.10;;;;;;5051744;28;20210;-77
2020/12/31 11:45:36;;;;;;;4.30;4.10;;;7.40;96.20;;;;;;5052371;28;20179;-77
2020/12/31 11:48:02;;;;;;;4.23;4.03;;;7.40;95.90;;;;;;5052960;28;20207;-74
2020/12/31 11:50:30;;;;;;;3.20;3.00;;;7.30;95.70;;;;;;5052263;28;20182;-77
2020/12/31 11:52:59;;;;;;;3.33;3.13;;;7.00;95.80;;;;;;5053328;28;20194;-76
2020/12/31 11:55:25;;;;;;;3.40;3.20;;;7.10;96.40;;;;;;5050604;28;20442;-76
2020/12/31 11:57:50;;;;;;;3.70;3.50;;;7.10;96.50;;;;;;5052455;28;20595;-76
2020/12/31 12:00:16;;;;;;;3.60;3.50;;;7.20;96.40;;;;;;5051709;28;20561;-77
2020/12/31 12:02:44;;;;;;;4.47;4.27;;;7.10;96.20;;;;;;5052072;28;20171;-77
2020/12/31 12:05:10;;;;;;;4.90;4.70;;;7.10;96.40;;;;;;5052052;28;20425;-77
2020/12/31 12:07:36;;;;;;;5.00;4.70;;;7.10;96.30;;;;;;5051859;28;20568;-77
2020/12/31 12:10:05;;;;;;;5.03;4.73;;;7.20;96.40;;;;;;5052651;28;20897;-76
2020/12/31 12:12:31;;;;;;;3.73;3.63;;;7.10;96.40;;;;;;5051732;28;20175;-76
2020/12/31 12:14:57;;;;;;;3.53;3.33;;;7.20;96.60;;;;;;5051713;28;20403;-76
2020/12/31 12:17:23;;;;;;;3.67;3.47;;;6.90;96.40;;;;;;5055665;28;20423;-77
2020/12/31 12:19:58;;;;;;;3.57;3.47;;;6.90;97.20;;;;;;5062902;28;20398;-76
2020/12/31 12:22:24;;;;;;;3.30;3.10;;;7.00;97.00;;;;;;5062347;28;20875;-77
2020/12/31 12:24:53;;;;;;;3.80;3.60;;;6.90;96.80;;;;;;5056759;28;20506;-76
2020/12/31 12:27:19;;;;;;;3.70;3.50;;;6.90;96.90;;;;;;5061075;28;21025;-78
2020/12/31 12:29:44;;;;;;;3.80;3.57;;;6.80;97.40;;;;;;5058089;28;20182;-76
2020/12/31 12:32:11;;;;;;;3.13;3.03;;;6.90;97.70;;;;;;5063387;28;20181;-76
2020/12/31 12:34:38;;;;;;;3.70;3.50;;;7.00;97.50;;;;;;5059461;28;20655;-76
2020/12/31 12:37:04;;;;;;;4.00;3.80;;;7.00;97.00;;;;;;5060780;28;20468;-76
2020/12/31 12:39:30;;;;;;;3.77;3.57;;;7.00;96.90;;;;;;5060662;28;20794;-75
2020/12/31 12:41:57;;;;;;;3.13;3.03;;;7.10;96.90;;;;;;5059916;28;20769;-78
2020/12/31 12:44:28;;;;;;;3.70;3.50;;;7.10;96.60;;;;;;5057919;28;20463;-79
2020/12/31 12:47:06;;;;;;;3.73;3.53;;;7.10;96.80;;;;;;5052254;28;20461;-76
2020/12/31 12:49:35;;;;;;;3.77;3.57;;;7.20;96.70;;;;;;5048629;28;20399;-77
2020/12/31 12:52:03;;;;;;;3.57;3.40;;;7.20;96.50;;;;;;5051915;28;20734;-77
2020/12/31 12:54:29;;;;;;;3.47;3.27;;;7.20;96.80;;;;;;5051798;28;20478;-77
2020/12/31 12:56:55;;;;;;;3.70;3.50;;;7.20;96.90;;;;;;5052303;28;20512;-76
2020/12/31 12:59:22;;;;;;;3.80;3.60;;;7.20;96.60;;;;;;5051415;28;20250;-77
2020/12/31 13:01:48;;;;;;;4.03;3.83;;;7.10;96.40;;;;;;5051277;28;20447;-76